Terminal Aerodrome Forecast
Issued by NWS

Home | Current Version | Previous Version | Text Only | Print | Product List | Glossary On
Versions: 1 2 3 4 5 6 7 8 9 10 11 12 13 14 15 16 17 18 19
000
FTUS41 KRNK 262336
TAFBCB
TAF
KBCB 262336Z 2700/2724 22005KT P6SM BKN050
     FM270600 00000KT 4SM BR SCT004 OVC090
      TEMPO 2710/2712 1/2SM FG VV002
     FM271300 VRB03KT P6SM SCT018
     FM271800 15004KT P6SM BKN040=

USA.gov is the U.S. government's official web portal to all federal, state and local government web resources and services.